Αρχική σελίδα
METAR-TAF:

METAR-TAF

Αεροδρόμια :

Ekati, Βορειοδυτικά Εδάφη, Καναδάς

γεωγραφικό πλάτος: 64-42N, γεωγραφικό μήκος: 110-37W, υψόμετρο: 469 μ

Παρών καιρός

Η αναφορά έγινε 20 λεπτά πριν, στις 12:00 UTC
Άνεμος 3 kt από Β/BΔ
Θερμοκρασία -28°C
Υγρασία 75%
Πίεση 1016 hPa
Ορατότητα: 19.3 χλμ
Καθαρός ουρανός

METAR: CYOA 161200Z 34003KT 12SM SKC M28/M31 A3000

Χρόνος: 05:20 (12:20 UTC)

Πρόγνωση Καιρού

Η αναφορά έγινε 13 ώρες και 18 λεπτά πριν, στις 23:02 UTC
Η πρόγνωση ισχύει από τις 15 στις 23 UTC έως τις 15 στις 24 UTC
Άνεμος 6 kt από Β/BΔ
Ορατότητα: 8.0 χλμ
Αρκετά νέφη σε ύψος 400 πόδια
Νεφοσκεπής σε ύψος 1500 πόδια
Αχλής
Προσωρινά
από 15 στις 23 UTC έως τις 15 στις 24 UTC
Ορατότητα: 10 χλμ
Διάσπαρτα νέφη σε ύψος 500 πόδια
Νεφοσκεπής σε ύψος 1500 πόδια

TAF: CYOA 152302Z 1523/1524 34006KT 5SM BR BKN004 OVC015 TEMPO 1523/1524 P6SM NSW SCT005 OVC015 RMK NXT FCST WILL BE ISSUED AT 161345Z

Μετεωρολογικές αναφορές και προγνώσεις για περισσότερα από 4000 αεροδρόμια (δελτία METAR και TAF).

Οι διαθέσιμοι σταθμοί απεικονίζονται στο χάρτη με κίτρινες και κόκκινες κουκκίδες.

Μετακινήστε το ποντίκι πάνω από τις κουκκίδες για να δείτε το όνομα του σταθμού.

Στη συνέχεια, κάντε κλικ για να δείτε τις μετεωρολογικές αναφορές και τις προγνώσεις καιρού.

Για να αλλάξετε το χάρτη: κάντε κλικ στα πράσινα κουμπιά με τον μαύρο σταυρό για να ζουμάρετε, στο πράσινο κουμπί με την παύλα για να αφαιρέσετε το ζουμ ή στα πράσινα βέλη για να αντιπαραβάλλετε χάρτες.


METAR-TAF: